Time;durP1;ratioP1;P1;durP2;ratioP2;P2;SDS_P1;SDS_P2;PMS_P1;PMS_P2;Temp;Humidity;BMP_temperature;BMP_pressure;BME280_temperature;BME280_humidity;BME280_pressure;Samples;Min_cycle;Max_cycle;Signal;HPM_P1;HPM_P2
2022/04/15 00:01:11;;;;;;;6.05;4.70;;;;;;;;;;5050830;28;20028;-78
2022/04/15 00:03:39;;;;;;;6.13;5.53;;;;;;;;;;5052234;28;20027;-77
2022/04/15 00:08:50;;;;;;;;;;;;;;;;;;5052568;28;20051;-79
2022/04/15 00:11:16;;;;;;;7.07;4.85;;;;;;;;;;5050976;28;20415;-76
2022/04/15 00:13:43;;;;;;;7.57;5.32;;;;;;;;;;5052029;28;20025;-79
2022/04/15 00:16:09;;;;;;;6.55;5.40;;;;;;;;;;5051939;28;20025;-78
2022/04/15 00:18:36;;;;;;;6.05;5.45;;;;;;;;;;5052197;28;20017;-79
2022/04/15 00:21:03;;;;;;;8.70;5.45;;;;;;;;;;5051964;28;20466;-79
2022/04/15 00:23:30;;;;;;;7.03;5.88;;;;;;;;;;5052147;28;20025;-78
2022/04/15 00:25:57;;;;;;;7.82;5.18;;;;;;;;;;5051941;28;20387;-80
2022/04/15 00:28:23;;;;;;;12.70;8.75;;;;;;;;;;5052038;28;20032;-76
2022/04/15 00:30:49;;;;;;;10.18;8.88;;;;;;;;;;5051978;28;20603;-77
2022/04/15 00:33:16;;;;;;;10.07;8.23;;;;;;;;;;5051987;28;20068;-80
2022/04/15 00:35:42;;;;;;;8.73;6.40;;;;;;;;;;5051743;28;20078;-75
2022/04/15 00:38:08;;;;;;;7.65;5.50;;;;;;;;;;5051684;28;20021;-77
2022/04/15 00:40:34;;;;;;;5.70;4.50;;;;;;;;;;5051732;28;20018;-77
2022/04/15 00:43:01;;;;;;;6.85;4.75;;;;;;;;;;5051739;28;20437;-77
2022/04/15 00:45:27;;;;;;;6.88;5.47;;;;;;;;;;5052394;28;20043;-79
2022/04/15 00:47:54;;;;;;;21.85;13.85;;;;;;;;;;5055757;28;20025;-78
2022/04/15 00:50:20;;;;;;;8.10;5.70;;;;;;;;;;5055566;28;20032;-78
2022/04/15 00:52:48;;;;;;;8.27;5.72;;;;;;;;;;5055536;28;20078;-78
2022/04/15 00:55:14;;;;;;;7.47;5.85;;;;;;;;;;5055309;28;20029;-78
2022/04/15 00:57:41;;;;;;;6.57;5.55;;;;;;;;;;5055429;28;20024;-77
2022/04/15 01:00:09;;;;;;;5.97;5.10;;;;;;;;;;5055081;28;20053;-77
2022/04/15 01:02:37;;;;;;;8.10;5.00;;;;;;;;;;5055234;28;20132;-76
2022/04/15 01:05:05;;;;;;;7.30;5.70;;;;;;;;;;5055154;28;20025;-78
2022/04/15 01:07:34;;;;;;;7.72;5.20;;;;;;;;;;5055314;28;20524;-79
2022/04/15 01:10:00;;;;;;;6.30;4.78;;;;;;;;;;5055048;28;20104;-79
2022/04/15 01:12:28;;;;;;;6.75;4.95;;;;;;;;;;5055236;28;20100;-78
2022/04/15 01:14:59;;;;;;;7.13;5.47;;;;;;;;;;5055031;28;20052;-76
2022/04/15 01:17:25;;;;;;;5.32;4.82;;;;;;;;;;5054226;28;20428;-76
2022/04/15 01:19:51;;;;;;;6.53;5.25;;;;;;;;;;5054983;28;20032;-77
2022/04/15 01:22:18;;;;;;;7.50;5.68;;;;;;;;;;5055072;28;20480;-76
2022/04/15 01:24:44;;;;;;;9.55;4.57;;;;;;;;;;5054843;28;20109;-79
2022/04/15 01:27:11;;;;;;;6.07;5.47;;;;;;;;;;5054835;28;20029;-78
2022/04/15 01:29:40;;;;;;;5.22;4.72;;;;;;;;;;5054882;28;20032;-79
2022/04/15 01:32:07;;;;;;;9.52;5.13;;;;;;;;;;5054639;28;20040;-77
2022/04/15 01:34:37;;;;;;;7.90;5.53;;;;;;;;;;5054773;28;20450;-79
2022/04/15 01:37:04;;;;;;;6.32;4.68;;;;;;;;;;5054510;28;20017;-77
2022/04/15 01:39:33;;;;;;;5.82;4.68;;;;;;;;;;5054781;28;20075;-76
2022/04/15 01:42:00;;;;;;;6.85;4.70;;;;;;;;;;5054425;28;20028;-76
2022/04/15 01:44:26;;;;;;;6.63;4.95;;;;;;;;;;5053467;28;20037;-79
2022/04/15 01:46:52;;;;;;;7.47;5.03;;;;;;;;;;5054409;28;20469;-77
2022/04/15 01:49:18;;;;;;;6.72;5.95;;;;;;;;;;5054496;28;20029;-78
2022/04/15 01:51:44;;;;;;;7.40;6.07;;;;;;;;;;5054408;28;20029;-79
2022/04/15 01:54:10;;;;;;;6.63;5.22;;;;;;;;;;5054284;28;20017;-79
2022/04/15 01:56:36;;;;;;;11.70;6.60;;;;;;;;;;5053915;28;20037;-78
2022/04/15 01:59:04;;;;;;;11.93;7.22;;;;;;;;;;5053883;28;20033;-79
2022/04/15 02:01:30;;;;;;;5.45;4.88;;;;;;;;;;5054335;28;20120;-78
2022/04/15 02:03:57;;;;;;;5.90;4.53;;;;;;;;;;5052796;28;20032;-79
2022/04/15 02:06:23;;;;;;;6.93;5.00;;;;;;;;;;5054062;28;20018;-80
2022/04/15 02:08:49;;;;;;;7.30;5.18;;;;;;;;;;5052664;28;20052;-76
2022/04/15 02:11:15;;;;;;;13.27;7.35;;;;;;;;;;5053856;28;20047;-75
2022/04/15 02:13:41;;;;;;;8.52;6.38;;;;;;;;;;5052717;28;20078;-77
2022/04/15 02:16:08;;;;;;;7.47;5.57;;;;;;;;;;5053803;28;20033;-77
2022/04/15 02:18:34;;;;;;;6.03;4.55;;;;;;;;;;5054108;28;20021;-79
2022/04/15 02:21:01;;;;;;;5.68;4.97;;;;;;;;;;5053808;28;20021;-75
2022/04/15 02:23:27;;;;;;;7.43;4.90;;;;;;;;;;5053871;28;20025;-77
2022/04/15 02:25:53;;;;;;;5.10;4.10;;;;;;;;;;5053852;28;20017;-76
2022/04/15 02:28:19;;;;;;;4.70;4.22;;;;;;;;;;5053514;28;20036;-78
2022/04/15 02:30:48;;;;;;;8.18;4.85;;;;;;;;;;5052333;28;20025;-77
2022/04/15 02:33:17;;;;;;;8.40;5.28;;;;;;;;;;5053402;28;20029;-79
2022/04/15 02:35:43;;;;;;;4.55;4.15;;;;;;;;;;5053592;28;20439;-76
2022/04/15 02:38:09;;;;;;;6.82;4.20;;;;;;;;;;5053563;28;20028;-78
2022/04/15 02:40:35;;;;;;;5.32;3.88;;;;;;;;;;5053580;28;20036;-78
2022/04/15 02:43:02;;;;;;;4.60;4.10;;;;;;;;;;5053514;28;20113;-78
2022/04/15 02:45:29;;;;;;;4.57;3.90;;;;;;;;;;5053231;28;20029;-77
2022/04/15 02:47:55;;;;;;;5.43;4.25;;;;;;;;;;5053266;28;20469;-79
2022/04/15 02:50:22;;;;;;;6.07;4.28;;;;;;;;;;5053282;28;20025;-78
2022/04/15 02:52:48;;;;;;;5.60;4.68;;;;;;;;;;5053251;28;20021;-78
2022/04/15 02:55:15;;;;;;;5.85;4.75;;;;;;;;;;5053171;28;20475;-76
2022/04/15 02:57:41;;;;;;;6.03;5.32;;;;;;;;;;5053383;28;20060;-78
2022/04/15 03:00:07;;;;;;;6.70;4.93;;;;;;;;;;5053006;28;20458;-79
2022/04/15 03:02:34;;;;;;;6.05;4.85;;;;;;;;;;5053012;28;20138;-78
2022/04/15 03:05:00;;;;;;;7.47;4.95;;;;;;;;;;5053137;28;20422;-78
2022/04/15 03:07:26;;;;;;;7.47;5.72;;;;;;;;;;5052850;28;20350;-79
2022/04/15 03:09:53;;;;;;;6.90;4.97;;;;;;;;;;5052289;28;20064;-78
2022/04/15 03:12:19;;;;;;;7.10;6.15;;;;;;;;;;5052830;28;20024;-76
2022/04/15 03:14:45;;;;;;;10.15;5.70;;;;;;;;;;5051550;28;20025;-75
2022/04/15 03:17:12;;;;;;;9.65;5.40;;;;;;;;;;5051691;28;20393;-79
2022/04/15 03:19:38;;;;;;;6.45;5.10;;;;;;;;;;5052841;28;20483;-79
2022/04/15 03:22:05;;;;;;;11.32;7.43;;;;;;;;;;5052872;28;20021;-76
2022/04/15 03:24:31;;;;;;;8.70;5.50;;;;;;;;;;5052403;28;20491;-77
2022/04/15 03:26:57;;;;;;;6.80;5.00;;;;;;;;;;5052725;28;20472;-77
2022/04/15 03:29:24;;;;;;;5.95;4.78;;;;;;;;;;5052606;28;20021;-78
2022/04/15 03:31:50;;;;;;;5.95;4.93;;;;;;;;;;5052531;28;20644;-77
2022/04/15 03:34:16;;;;;;;8.15;5.32;;;;;;;;;;5052551;28;20051;-77
2022/04/15 03:36:43;;;;;;;5.43;4.82;;;;;;;;;;5052064;28;20523;-79
2022/04/15 03:39:09;;;;;;;5.22;4.35;;;;;;;;;;5052534;28;20023;-76
2022/04/15 03:41:35;;;;;;;5.43;4.47;;;;;;;;;;5052217;28;20506;-79
2022/04/15 03:44:01;;;;;;;5.85;4.43;;;;;;;;;;5052181;28;20025;-78
2022/04/15 03:46:27;;;;;;;5.88;4.85;;;;;;;;;;5051331;28;20481;-78
2022/04/15 03:48:53;;;;;;;8.00;5.28;;;;;;;;;;5051449;28;20427;-78
2022/04/15 03:51:20;;;;;;;7.70;4.80;;;;;;;;;;5051782;28;20898;-77
2022/04/15 03:53:46;;;;;;;8.88;5.13;;;;;;;;;;5051563;28;20100;-75
2022/04/15 03:56:12;;;;;;;8.65;7.00;;;;;;;;;;5051603;28;20098;-77
2022/04/15 03:58:38;;;;;;;17.13;15.35;;;;;;;;;;5048908;28;20024;-75
2022/04/15 04:01:04;;;;;;;14.73;13.32;;;;;;;;;;5051657;28;20053;-76
2022/04/15 04:03:30;;;;;;;6.43;5.72;;;;;;;;;;5052107;28;20029;-76
2022/04/15 04:05:56;;;;;;;10.82;6.18;;;;;;;;;;5052054;28;20033;-77
2022/04/15 04:08:23;;;;;;;12.93;5.78;;;;;;;;;;5051102;28;20040;-79
2022/04/15 04:10:49;;;;;;;8.15;7.35;;;;;;;;;;5052025;28;20063;-75
2022/04/15 04:13:17;;;;;;;16.00;8.10;;;;;;;;;;5052114;28;20060;-78
2022/04/15 04:15:43;;;;;;;10.45;8.73;;;;;;;;;;5051989;28;20033;-77
2022/04/15 04:18:11;;;;;;;23.80;16.63;;;;;;;;;;5052240;28;20493;-79
2022/04/15 04:20:37;;;;;;;52.38;43.28;;;;;;;;;;5054404;28;20021;-78
2022/04/15 04:23:03;;;;;;;39.60;28.20;;;;;;;;;;5056121;28;20480;-80
2022/04/15 04:25:29;;;;;;;30.73;23.33;;;;;;;;;;5056196;28;20029;-77
2022/04/15 04:27:55;;;;;;;19.33;13.38;;;;;;;;;;5055728;28;20495;-79
2022/04/15 04:30:21;;;;;;;18.02;12.48;;;;;;;;;;5056054;28;20047;-80
2022/04/15 04:32:50;;;;;;;13.80;10.20;;;;;;;;;;5055773;28;20021;-78
2022/04/15 04:35:18;;;;;;;19.33;13.38;;;;;;;;;;5055772;28;20040;-80
2022/04/15 04:37:44;;;;;;;20.42;13.05;;;;;;;;;;5055864;28;20151;-76
2022/04/15 04:40:10;;;;;;;15.95;12.07;;;;;;;;;;5055796;28;20028;-76
2022/04/15 04:42:37;;;;;;;12.80;10.18;;;;;;;;;;5043671;28;20098;-76
2022/04/15 04:45:03;;;;;;;12.82;9.63;;;;;;;;;;5053988;28;20020;-76
2022/04/15 04:47:30;;;;;;;13.68;11.93;;;;;;;;;;5055813;28;20017;-77
2022/04/15 04:49:56;;;;;;;14.65;13.25;;;;;;;;;;5055532;28;20013;-78
2022/04/15 04:52:25;;;;;;;11.55;10.35;;;;;;;;;;5055762;28;20100;-79
2022/04/15 04:54:51;;;;;;;9.27;7.80;;;;;;;;;;5055320;28;20049;-83
2022/04/15 04:57:17;;;;;;;11.93;7.63;;;;;;;;;;5055701;28;20629;-82
2022/04/15 04:59:43;;;;;;;10.32;8.20;;;;;;;;;;5055387;28;20087;-81
2022/04/15 05:02:12;;;;;;;12.00;9.32;;;;;;;;;;5055471;28;20104;-81
2022/04/15 05:04:40;;;;;;;15.80;10.38;;;;;;;;;;5055430;28;20024;-79
2022/04/15 05:07:06;;;;;;;13.30;11.90;;;;;;;;;;5054265;28;20025;-82
2022/04/15 05:09:32;;;;;;;14.95;12.27;;;;;;;;;;5054164;28;20021;-79
2022/04/15 05:11:59;;;;;;;14.63;10.63;;;;;;;;;;5054045;28;20380;-82
2022/04/15 05:14:25;;;;;;;14.68;9.63;;;;;;;;;;5055447;28;20353;-81
2022/04/15 05:16:51;;;;;;;14.82;9.65;;;;;;;;;;5055012;28;20039;-82
2022/04/15 05:19:17;;;;;;;24.50;11.35;;;;;;;;;;5039949;28;20153;-79
2022/04/15 05:21:43;;;;;;;23.20;11.95;;;;;;;;;;5034895;28;20603;-82
2022/04/15 05:24:10;;;;;;;17.50;12.93;;;;;;;;;;5033734;28;20462;-83
2022/04/15 05:26:37;;;;;;;15.25;11.60;;;;;;;;;;5034277;28;20029;-83
2022/04/15 05:29:04;;;;;;;22.58;16.88;;;;;;;;;;5034895;28;20100;-81
2022/04/15 05:31:30;;;;;;;15.93;11.02;;;;;;;;;;5033322;28;20025;-80
2022/04/15 05:33:56;;;;;;;11.07;8.85;;;;;;;;;;5047942;28;20025;-81
2022/04/15 05:36:25;;;;;;;11.18;9.02;;;;;;;;;;5054110;28;20036;-80
2022/04/15 05:38:51;;;;;;;10.90;8.13;;;;;;;;;;5053207;28;20033;-84
2022/04/15 05:41:19;;;;;;;11.20;9.75;;;;;;;;;;5062988;28;20025;-79
2022/04/15 05:43:46;;;;;;;13.25;9.85;;;;;;;;;;5053791;28;20017;-77
2022/04/15 05:46:13;;;;;;;12.00;9.82;;;;;;;;;;5054387;28;20029;-81
2022/04/15 05:48:39;;;;;;;12.70;10.23;;;;;;;;;;5053842;28;20423;-83
2022/04/15 05:51:05;;;;;;;13.85;9.40;;;;;;;;;;5054590;28;20029;-81
2022/04/15 05:53:31;;;;;;;10.45;8.05;;;;;;;;;;5053968;28;20036;-78
2022/04/15 05:55:58;;;;;;;11.68;7.53;;;;;;;;;;5053331;28;20147;-81
2022/04/15 05:58:25;;;;;;;11.02;7.53;;;;;;;;;;5050174;28;20021;-80
2022/04/15 06:00:51;;;;;;;8.93;7.32;;;;;;;;;;5033855;28;20417;-78
2022/04/15 06:03:20;;;;;;;9.60;7.32;;;;;;;;;;5034012;28;20497;-80
2022/04/15 06:05:47;;;;;;;10.18;7.38;;;;;;;;;;5033958;28;20037;-79
2022/04/15 06:08:13;;;;;;;9.95;7.85;;;;;;;;;;5033930;28;20021;-83
2022/04/15 06:10:39;;;;;;;7.13;6.15;;;;;;;;;;5033947;28;20029;-82
2022/04/15 06:15:53;;;;;;;7.15;6.38;;;;;;;;;;5052558;28;20052;-79
2022/04/15 06:18:20;;;;;;;8.10;6.47;;;;;;;;;;5052794;28;20757;-80
2022/04/15 06:20:47;;;;;;;7.57;6.43;;;;;;;;;;5052720;28;20473;-85
2022/04/15 06:23:14;;;;;;;15.63;11.18;;;;;;;;;;5051518;28;20524;-79
2022/04/15 06:25:40;;;;;;;15.55;11.77;;;;;;;;;;5051994;28;20053;-83
2022/04/15 06:28:07;;;;;;;10.38;8.30;;;;;;;;;;5052095;28;20103;-83
2022/04/15 06:30:33;;;;;;;9.10;7.75;;;;;;;;;;5053014;28;20498;-81
2022/04/15 06:32:59;;;;;;;10.65;7.10;;;;;;;;;;5047088;28;20024;-81
2022/04/15 06:35:25;;;;;;;9.95;6.72;;;;;;;;;;5036827;28;20033;-83
2022/04/15 06:37:54;;;;;;;8.98;6.65;;;;;;;;;;5032722;28;20026;-81
2022/04/15 06:40:20;;;;;;;7.75;6.35;;;;;;;;;;5046110;28;20115;-79
2022/04/15 06:42:46;;;;;;;6.50;5.80;;;;;;;;;;5050719;28;20025;-80
2022/04/15 06:45:13;;;;;;;8.30;5.05;;;;;;;;;;5052275;28;20083;-81
2022/04/15 06:47:40;;;;;;;10.35;5.00;;;;;;;;;;5052176;28;20021;-78
2022/04/15 06:50:06;;;;;;;6.40;4.30;;;;;;;;;;5051886;28;20033;-83
2022/04/15 06:52:32;;;;;;;5.32;4.40;;;;;;;;;;5050967;28;20033;-80
2022/04/15 06:54:59;;;;;;;6.78;4.60;;;;;;;;;;5051260;28;20033;-83
2022/04/15 06:57:25;;;;;;;6.85;4.53;;;;;;;;;;5050693;28;20511;-81
2022/04/15 06:59:51;;;;;;;5.63;3.70;;;;;;;;;;5051666;28;20056;-83
2022/04/15 07:02:18;;;;;;;6.03;4.53;;;;;;;;;;5051544;28;20072;-76
2022/04/15 07:04:44;;;;;;;5.93;4.57;;;;;;;;;;5051570;28;20025;-78
2022/04/15 07:07:13;;;;;;;4.90;4.22;;;;;;;;;;5051847;28;20373;-78
2022/04/15 07:10:00;;;;;;;6.57;4.30;;;;;;;;;;5051636;28;20052;-80
2022/04/15 07:12:26;;;;;;;5.65;4.55;;;;;;;;;;5050383;28;20072;-80
2022/04/15 07:14:52;;;;;;;9.00;4.95;;;;;;;;;;5051489;28;20027;-80
2022/04/15 07:17:18;;;;;;;6.57;4.65;;;;;;;;;;5050250;28;20025;-82
2022/04/15 07:19:45;;;;;;;5.78;4.43;;;;;;;;;;5050291;28;20025;-78
2022/04/15 07:22:11;;;;;;;7.88;4.63;;;;;;;;;;5051779;28;20032;-84
2022/04/15 07:24:37;;;;;;;9.00;5.20;;;;;;;;;;5051766;28;20033;-78
2022/04/15 07:27:03;;;;;;;8.18;5.10;;;;;;;;;;5051804;28;20028;-81
2022/04/15 07:29:30;;;;;;;10.18;5.45;;;;;;;;;;5043869;28;20025;-76
2022/04/15 07:31:57;;;;;;;12.95;5.10;;;;;;;;;;5031429;28;20048;-80
2022/04/15 07:34:23;;;;;;;17.17;9.40;;;;;;;;;;5049699;28;20025;-79
2022/04/15 07:36:57;;;;;;;17.98;9.55;;;;;;;;;;5051771;28;20466;-85
2022/04/15 07:39:23;;;;;;;16.90;9.15;;;;;;;;;;5051213;28;20020;-83
2022/04/15 07:41:50;;;;;;;9.35;6.28;;;;;;;;;;5050419;28;20028;-83
2022/04/15 07:44:17;;;;;;;12.13;6.00;;;;;;;;;;5051351;28;20029;-79
2022/04/15 07:46:44;;;;;;;11.05;5.93;;;;;;;;;;5049939;28;20037;-81
2022/04/15 07:49:10;;;;;;;6.28;4.25;;;;;;;;;;5050644;28;20151;-83
2022/04/15 07:51:37;;;;;;;13.52;7.40;;;;;;;;;;5051273;28;20104;-79
2022/04/15 07:54:04;;;;;;;28.98;14.20;;;;;;;;;;5050295;28;20036;-81
2022/04/15 07:56:37;;;;;;;9.70;5.97;;;;;;;;;;5050039;28;20045;-84
2022/04/15 07:59:04;;;;;;;7.72;4.85;;;;;;;;;;5048168;28;20025;-80
2022/04/15 08:01:30;;;;;;;4.65;4.15;;;;;;;;;;5039378;28;20036;-82
2022/04/15 08:03:57;;;;;;;14.98;7.70;;;;;;;;;;5030783;28;20029;-78
2022/04/15 08:06:24;;;;;;;16.70;9.13;;;;;;;;;;5030685;28;20029;-78
2022/04/15 08:08:53;;;;;;;11.98;6.00;;;;;;;;;;5030954;28;20028;-77
2022/04/15 08:11:20;;;;;;;11.27;6.57;;;;;;;;;;5030683;28;20041;-77
2022/04/15 08:13:46;;;;;;;7.25;4.47;;;;;;;;;;5030831;28;20029;-77
2022/04/15 08:16:12;;;;;;;8.43;5.47;;;;;;;;;;5029172;28;20037;-77
2022/04/15 08:18:38;;;;;;;10.38;5.75;;;;;;;;;;5030754;28;20022;-77
2022/04/15 08:21:04;;;;;;;8.65;4.68;;;;;;;;;;5031014;28;20047;-76
2022/04/15 08:23:30;;;;;;;6.72;4.60;;;;;;;;;;5035735;28;20723;-75
2022/04/15 08:25:56;;;;;;;11.57;6.85;;;;;;;;;;5050547;28;20059;-76
2022/04/15 08:28:23;;;;;;;24.67;10.25;;;;;;;;;;5049394;28;20419;-77
2022/04/15 08:30:49;;;;;;;63.70;23.13;;;;;;;;;;5048745;28;20438;-77
2022/04/15 08:33:15;;;;;;;15.18;7.70;;;;;;;;;;5049775;28;20021;-79
2022/04/15 08:35:41;;;;;;;18.25;8.70;;;;;;;;;;5049819;28;20043;-80
2022/04/15 08:38:07;;;;;;;19.33;8.10;;;;;;;;;;5050763;28;20029;-80
2022/04/15 08:40:35;;;;;;;14.70;7.90;;;;;;;;;;5049953;28;20588;-78
2022/04/15 08:43:03;;;;;;;10.50;5.55;;;;;;;;;;5047671;28;20128;-82
2022/04/15 08:45:30;;;;;;;12.10;6.70;;;;;;;;;;5048847;28;20127;-80
2022/04/15 08:47:59;;;;;;;12.93;6.07;;;;;;;;;;5049833;28;20111;-81
2022/04/15 08:50:26;;;;;;;5.57;3.50;;;;;;;;;;5050470;28;20100;-79
2022/04/15 08:53:11;;;;;;;6.68;3.92;;;;;;;;;;5050360;28;20487;-79
2022/04/15 08:55:37;;;;;;;6.68;4.70;;;;;;;;;;5050036;28;20036;-81
2022/04/15 08:58:03;;;;;;;8.35;3.97;;;;;;;;;;5043529;28;20419;-81
2022/04/15 09:00:29;;;;;;;8.40;3.72;;;;;;;;;;5029936;28;20679;-80
2022/04/15 09:02:56;;;;;;;5.15;4.25;;;;;;;;;;5030432;28;20420;-80
2022/04/15 09:05:26;;;;;;;5.40;3.90;;;;;;;;;;5030468;28;20110;-79
2022/04/15 09:08:08;;;;;;;5.22;2.90;;;;;;;;;;5032932;28;20440;-78
2022/04/15 09:10:35;;;;;;;5.05;3.10;;;;;;;;;;5033711;28;20029;-80
2022/04/15 09:13:03;;;;;;;5.15;3.25;;;;;;;;;;5033324;28;20101;-82
2022/04/15 09:15:29;;;;;;;5.90;2.92;;;;;;;;;;5033659;28;20384;-79
2022/04/15 09:17:59;;;;;;;6.63;2.42;;;;;;;;;;5049175;28;20029;-76
2022/04/15 09:20:26;;;;;;;5.88;2.83;;;;;;;;;;5053332;28;20037;-81
2022/04/15 09:22:56;;;;;;;4.60;2.95;;;;;;;;;;5053603;28;20028;-83
2022/04/15 09:25:27;;;;;;;3.92;2.95;;;;;;;;;;5038719;28;20014;-81
2022/04/15 09:27:57;;;;;;;8.15;2.88;;;;;;;;;;5036850;28;20112;-85
2022/04/15 09:30:42;;;;;;;5.07;2.75;;;;;;;;;;5054155;28;20033;-82
2022/04/15 09:33:10;;;;;;;4.20;3.00;;;;;;;;;;5053446;28;20025;-84
2022/04/15 09:35:36;;;;;;;2.97;2.20;;;;;;;;;;5054269;28;20036;-84
2022/04/15 09:38:04;;;;;;;4.72;2.40;;;;;;;;;;5053435;28;20036;-84
2022/04/15 09:40:37;;;;;;;25.10;4.70;;;;;;;;;;5053312;28;20040;-84
2022/04/15 09:43:07;;;;;;;18.70;9.20;;;;;;;;;;5053448;28;20061;-85
2022/04/15 09:45:37;;;;;;;17.63;4.68;;;;;;;;;;5053232;28;20029;-83
2022/04/15 09:48:03;;;;;;;7.25;3.67;;;;;;;;;;5053102;28;20056;-82
2022/04/15 09:54:06;;;;;;;5.18;3.05;;;;;;;;;;5045374;28;20044;-82
2022/04/15 09:57:05;;;;;;;3.63;2.47;;;;;;;;;;5048001;28;20041;-82
2022/04/15 10:00:05;;;;;;;4.20;3.28;;;;;;;;;;5019682;28;20045;-83
2022/04/15 10:02:35;;;;;;;6.75;2.53;;;;;;;;;;5035187;28;20045;-79
2022/04/15 10:05:03;;;;;;;5.25;3.13;;;;;;;;;;5052577;28;20052;-80
2022/04/15 10:07:30;;;;;;;6.53;3.25;;;;;;;;;;5053025;28;20032;-80
2022/04/15 10:09:57;;;;;;;5.65;2.97;;;;;;;;;;5045717;28;20100;-82
2022/04/15 10:12:24;;;;;;;3.67;2.58;;;;;;;;;;5051288;28;20032;-81
2022/04/15 10:14:51;;;;;;;6.97;3.38;;;;;;;;;;5052288;28;20044;-81
2022/04/15 10:17:20;;;;;;;4.57;2.92;;;;;;;;;;5052158;28;20021;-80
2022/04/15 10:19:46;;;;;;;7.50;3.42;;;;;;;;;;5051903;28;20009;-80
2022/04/15 10:22:14;;;;;;;8.00;3.72;;;;;;;;;;5051529;28;20016;-80
2022/04/15 10:24:40;;;;;;;4.55;2.70;;;;;;;;;;5052495;28;20021;-80
2022/04/15 10:27:07;;;;;;;5.30;3.10;;;;;;;;;;5068918;28;20043;-82
2022/04/15 10:29:33;;;;;;;4.00;2.72;;;;;;;;;;5072827;28;20032;-81
2022/04/15 10:32:11;;;;;;;8.52;3.72;;;;;;;;;;5071689;28;20033;-85
2022/04/15 10:34:55;;;;;;;10.18;3.10;;;;;;;;;;5064942;28;20490;-81
2022/04/15 10:37:21;;;;;;;;;;;;;;;;;;5052763;28;20031;-81
2022/04/15 10:39:48;;;;;;;3.80;2.30;;;;;;;;;;5033609;28;19908;-82
2022/04/15 10:42:22;;;;;;;5.72;3.17;;;;;;;;;;5051921;28;20028;-81
2022/04/15 10:44:48;;;;;;;5.25;2.90;;;;;;;;;;5052092;28;20028;-80
2022/04/15 10:47:17;;;;;;;4.47;2.65;;;;;;;;;;5051894;28;20052;-80
2022/04/15 10:50:10;;;;;;;14.05;3.10;;;;;;;;;;5052604;28;20101;-81
2022/04/15 10:52:36;;;;;;;5.70;3.15;;;;;;;;;;5041609;28;20043;-81
2022/04/15 10:55:16;;;;;;;9.07;3.08;;;;;;;;;;5040235;28;20037;-83
2022/04/15 10:57:49;;;;;;;5.15;2.90;;;;;;;;;;5024375;28;20116;-81
2022/04/15 11:03:04;;;;;;;13.07;3.70;;;;;;;;;;5053062;28;20170;-80
2022/04/15 11:05:33;;;;;;;7.07;3.08;;;;;;;;;;5053020;28;20036;-77
2022/04/15 11:08:00;;;;;;;11.80;3.65;;;;;;;;;;5052531;28;20025;-78
2022/04/15 11:10:45;;;;;;;6.80;3.35;;;;;;;;;;5052943;28;20033;-78
2022/04/15 11:13:34;;;;;;;3.85;2.47;;;;;;;;;;5052314;28;20029;-79
2022/04/15 11:16:00;;;;;;;5.20;2.55;;;;;;;;;;5051008;28;20119;-81
2022/04/15 11:18:46;;;;;;;3.65;2.45;;;;;;;;;;5072804;28;20502;-78
2022/04/15 11:21:35;;;;;;;4.50;2.55;;;;;;;;;;5072393;28;20028;-80
2022/04/15 11:24:05;;;;;;;3.72;2.58;;;;;;;;;;5072256;28;20292;-81
2022/04/15 11:26:32;;;;;;;8.13;3.05;;;;;;;;;;5072495;28;20507;-82
2022/04/15 11:28:59;;;;;;;7.53;3.55;;;;;;;;;;5053292;28;20472;-84
2022/04/15 11:31:29;;;;;;;5.30;3.28;;;;;;;;;;5064068;28;20025;-87
2022/04/15 11:33:56;;;;;;;5.03;2.20;;;;;;;;;;5033968;28;20463;-82
2022/04/15 11:36:23;;;;;;;11.07;4.30;;;;;;;;;;5051976;28;20041;-80
2022/04/15 11:38:52;;;;;;;7.43;4.07;;;;;;;;;;5052154;28;20025;-75
2022/04/15 11:41:21;;;;;;;7.03;3.88;;;;;;;;;;5051414;28;20025;-75
2022/04/15 11:43:49;;;;;;;11.43;5.68;;;;;;;;;;5033951;28;20039;-76
2022/04/15 11:46:15;;;;;;;14.07;9.48;;;;;;;;;;5060978;28;20090;-77
2022/04/15 11:48:41;;;;;;;10.07;6.03;;;;;;;;;;5071974;28;20025;-80
2022/04/15 11:51:07;;;;;;;10.98;6.68;;;;;;;;;;5051683;28;20025;-85
2022/04/15 11:53:35;;;;;;;8.40;4.90;;;;;;;;;;5051779;28;20393;-80
2022/04/15 11:56:02;;;;;;;12.40;6.15;;;;;;;;;;5051653;28;20060;-83
2022/04/15 11:58:36;;;;;;;6.75;4.32;;;;;;;;;;5051761;28;20048;-80
2022/04/15 12:01:02;;;;;;;13.38;4.63;;;;;;;;;;5040371;28;20512;-81
2022/04/15 12:03:29;;;;;;;7.22;5.20;;;;;;;;;;5033887;28;20024;-83
2022/04/15 12:05:57;;;;;;;6.95;4.65;;;;;;;;;;5034007;28;20025;-84
2022/04/15 12:08:24;;;;;;;10.80;5.22;;;;;;;;;;5034031;28;20117;-83
2022/04/15 12:10:51;;;;;;;24.10;9.68;;;;;;;;;;5051670;28;20032;-84
2022/04/15 12:13:18;;;;;;;7.55;4.80;;;;;;;;;;5051369;28;20044;-79
2022/04/15 12:15:48;;;;;;;20.73;8.45;;;;;;;;;;5044628;28;20133;-78
2022/04/15 12:18:15;;;;;;;6.88;3.97;;;;;;;;;;5031669;28;20392;-83
2022/04/15 12:20:41;;;;;;;5.20;2.83;;;;;;;;;;5031419;28;20029;-84
2022/04/15 12:23:13;;;;;;;8.38;3.03;;;;;;;;;;5031733;28;20045;-81
2022/04/15 12:31:28;;;;;;;10.55;5.55;;;;;;;;;;5033992;28;20008;-80
2022/04/15 12:33:54;;;;;;;7.68;3.67;;;;;;;;;;5009232;28;20033;-82
2022/04/15 12:36:20;;;;;;;10.27;3.78;;;;;;;;;;5032758;28;20033;-81
2022/04/15 12:39:03;;;;;;;5.95;3.90;;;;;;;;;;5033497;28;20025;-86
2022/04/15 12:41:49;;;;;;;4.22;2.00;;;;;;;;;;5014553;28;20401;-82
2022/04/15 12:44:20;;;;;;;3.95;2.53;;;;;;;;;;5038554;28;20033;-86
2022/04/15 12:46:48;;;;;;;5.03;2.70;;;;;;;;;;5034165;28;20179;-82
2022/04/15 12:49:27;;;;;;;3.45;2.00;;;;;;;;;;5031467;28;20025;-81
2022/04/15 12:51:58;;;;;;;5.53;2.35;;;;;;;;;;5019209;28;20080;-82
2022/04/15 12:54:25;;;;;;;3.13;2.30;;;;;;;;;;5036152;28;20024;-85
2022/04/15 12:56:58;;;;;;;4.07;2.15;;;;;;;;;;5036400;28;20076;-83
2022/04/15 12:59:27;;;;;;;9.95;3.35;;;;;;;;;;5035978;28;20374;-81
2022/04/15 13:01:56;;;;;;;2.40;1.80;;;;;;;;;;5050479;28;20052;-79
2022/04/15 13:04:27;;;;;;;3.70;2.20;;;;;;;;;;5055119;28;20442;-77
2022/04/15 13:06:53;;;;;;;3.72;1.92;;;;;;;;;;5054790;28;20584;-76
2022/04/15 13:09:23;;;;;;;3.33;1.88;;;;;;;;;;5055305;28;20492;-75
2022/04/15 13:11:49;;;;;;;2.83;1.80;;;;;;;;;;5053980;28;20079;-79
2022/04/15 13:14:15;;;;;;;4.47;2.13;;;;;;;;;;5055650;28;20018;-81
2022/04/15 13:16:41;;;;;;;7.88;3.47;;;;;;;;;;5055127;28;20204;-75
2022/04/15 13:19:07;;;;;;;5.50;3.13;;;;;;;;;;5055355;28;20098;-78
2022/04/15 13:21:33;;;;;;;5.13;3.28;;;;;;;;;;5055118;28;20041;-79
2022/04/15 13:24:00;;;;;;;2.72;1.55;;;;;;;;;;5055902;28;20028;-83
2022/04/15 13:26:27;;;;;;;4.32;1.63;;;;;;;;;;5055808;28;20079;-88
2022/04/15 13:28:53;;;;;;;3.72;2.08;;;;;;;;;;5055617;28;20021;-83
2022/04/15 13:31:20;;;;;;;4.20;1.67;;;;;;;;;;5054214;28;20094;-80
2022/04/15 13:33:46;;;;;;;2.40;1.35;;;;;;;;;;5055225;28;20021;-83
2022/04/15 13:36:12;;;;;;;2.13;1.40;;;;;;;;;;5054573;28;20051;-84
2022/04/15 13:38:38;;;;;;;2.42;1.35;;;;;;;;;;5052822;28;20457;-82
2022/04/15 13:41:06;;;;;;;2.70;1.80;;;;;;;;;;5055763;28;20025;-82
2022/04/15 13:43:32;;;;;;;2.63;1.65;;;;;;;;;;5055386;28;20029;-79
2022/04/15 13:45:58;;;;;;;3.47;1.10;;;;;;;;;;5055609;28;20021;-81
2022/04/15 13:48:24;;;;;;;5.07;1.83;;;;;;;;;;5053582;28;20123;-81
2022/04/15 13:50:51;;;;;;;4.40;1.23;;;;;;;;;;5055597;28;20032;-80
2022/04/15 13:58:46;;;;;;;;;;;;;;;;;;5035024;28;20605;-80
2022/04/15 14:01:27;;;;;;;4.05;1.55;;;;;;;;;;5054188;28;20364;-78
2022/04/15 14:03:55;;;;;;;2.38;1.08;;;;;;;;;;5054188;28;20116;-80
2022/04/15 14:06:22;;;;;;;4.00;1.80;;;;;;;;;;5054557;28;20411;-82
2022/04/15 14:08:48;;;;;;;3.35;1.20;;;;;;;;;;5054044;28;20044;-80
2022/04/15 14:11:14;;;;;;;8.13;2.15;;;;;;;;;;5054244;28;20025;-81
2022/04/15 14:13:43;;;;;;;3.38;1.30;;;;;;;;;;5054011;28;20025;-84
2022/04/15 14:16:13;;;;;;;2.33;1.23;;;;;;;;;;5053942;28;20025;-78
2022/04/15 14:18:39;;;;;;;2.83;1.40;;;;;;;;;;5053884;28;20469;-81
2022/04/15 14:21:05;;;;;;;1.85;1.10;;;;;;;;;;5053261;28;20108;-79
2022/04/15 14:23:32;;;;;;;2.80;1.23;;;;;;;;;;5053500;28;20118;-82
2022/04/15 14:25:59;;;;;;;1.77;0.90;;;;;;;;;;5053347;28;20106;-79
2022/04/15 14:28:25;;;;;;;2.75;1.20;;;;;;;;;;5053373;28;20060;-84
2022/04/15 14:30:52;;;;;;;2.92;1.30;;;;;;;;;;5051720;28;20028;-82
2022/04/15 14:33:18;;;;;;;1.63;1.10;;;;;;;;;;5053562;28;20381;-80
2022/04/15 14:35:44;;;;;;;3.17;1.10;;;;;;;;;;5052914;28;20025;-80
2022/04/15 14:38:11;;;;;;;2.35;1.17;;;;;;;;;;5053073;28;20028;-78
2022/04/15 14:40:38;;;;;;;2.75;1.15;;;;;;;;;;5053693;28;20055;-86
2022/04/15 14:43:05;;;;;;;2.40;1.38;;;;;;;;;;5054260;28;20021;-78
2022/04/15 14:45:31;;;;;;;3.10;1.52;;;;;;;;;;5054397;28;20021;-82
2022/04/15 14:47:57;;;;;;;9.15;1.90;;;;;;;;;;5054234;28;20025;-79
2022/04/15 14:50:23;;;;;;;3.33;1.38;;;;;;;;;;5054173;28;20070;-81
2022/04/15 14:52:49;;;;;;;3.17;1.23;;;;;;;;;;5074343;28;20464;-84
2022/04/15 14:55:15;;;;;;;1.60;0.98;;;;;;;;;;5056236;28;20033;-83
2022/04/15 14:57:41;;;;;;;1.58;0.90;;;;;;;;;;5074225;28;20064;-81
2022/04/15 15:00:09;;;;;;;2.22;1.17;;;;;;;;;;5072990;28;20403;-83
2022/04/15 15:02:36;;;;;;;2.08;1.02;;;;;;;;;;5074144;28;20024;-80
2022/04/15 15:05:05;;;;;;;3.58;1.13;;;;;;;;;;5072958;28;20040;-83